createdAt,value
2019-03-23T00:02:49.976Z,9.88
2019-03-23T00:06:57.644Z,9.76
2019-03-23T00:11:05.251Z,9.67
2019-03-23T00:15:13.493Z,9.63
2019-03-23T00:19:20.918Z,9.64
2019-03-23T00:23:28.597Z,9.63
2019-03-23T00:27:36.298Z,9.61
2019-03-23T00:31:43.817Z,9.65
2019-03-23T00:35:51.365Z,9.59
2019-03-23T00:39:59.019Z,9.57
2019-03-23T00:44:07.574Z,9.55
2019-03-23T00:48:15.164Z,9.58
2019-03-23T00:52:22.649Z,9.56
2019-03-23T00:56:30.202Z,9.38
2019-03-23T01:00:38.054Z,9.35
2019-03-23T01:04:45.775Z,9.21
2019-03-23T01:08:53.456Z,9.05
2019-03-23T01:13:01.285Z,9.02
2019-03-23T01:17:08.928Z,9.10
2019-03-23T01:21:16.704Z,9.05
2019-03-23T01:25:24.376Z,9.10
2019-03-23T01:29:32.100Z,8.96
2019-03-23T01:33:39.671Z,8.95
2019-03-23T01:37:47.481Z,8.91
2019-03-23T01:41:55.239Z,8.77
2019-03-23T01:46:03.500Z,8.75
2019-03-23T01:50:11.630Z,8.65
2019-03-23T01:54:19.177Z,8.66
2019-03-23T01:58:26.780Z,8.61
2019-03-23T02:02:34.530Z,8.56
2019-03-23T02:06:42.114Z,8.52
2019-03-23T02:10:49.749Z,8.47
2019-03-23T02:14:57.322Z,8.40
2019-03-23T02:19:05.081Z,8.33
2019-03-23T02:23:12.652Z,8.32
2019-03-23T02:27:20.264Z,8.25
2019-03-23T02:31:28.116Z,8.22
2019-03-23T02:35:35.768Z,8.14
2019-03-23T02:39:43.348Z,8.11
2019-03-23T02:43:51.073Z,8.03
2019-03-23T02:47:59.092Z,8.01
2019-03-23T02:52:06.830Z,8.01
2019-03-23T02:56:14.452Z,7.95
2019-03-23T03:00:22.553Z,7.87
2019-03-23T03:04:30.262Z,7.89
2019-03-23T03:08:37.995Z,7.84
2019-03-23T03:12:45.566Z,7.64
2019-03-23T03:16:53.123Z,7.61
2019-03-23T03:21:00.605Z,7.60
2019-03-23T03:25:08.956Z,7.55
2019-03-23T03:29:16.531Z,7.27
2019-03-23T03:33:24.263Z,7.31
2019-03-23T03:37:31.854Z,6.91
2019-03-23T03:41:39.915Z,6.98
2019-03-23T03:45:47.502Z,7.07
2019-03-23T03:49:55.107Z,6.97
2019-03-23T03:54:02.686Z,6.86
2019-03-23T03:58:10.369Z,6.80
2019-03-23T04:02:18.035Z,6.69
2019-03-23T04:06:25.721Z,6.57
2019-03-23T04:10:33.242Z,6.51
2019-03-23T04:14:40.738Z,6.45
2019-03-23T04:18:48.249Z,6.37
2019-03-23T04:22:55.854Z,6.02
2019-03-23T04:27:05.184Z,5.92
2019-03-23T04:31:12.645Z,6.03
2019-03-23T04:35:20.306Z,5.80
2019-03-23T04:39:27.930Z,5.73
2019-03-23T04:43:35.498Z,5.84
2019-03-23T04:47:43.041Z,5.57
2019-03-23T04:51:50.735Z,5.56
2019-03-23T04:55:58.259Z,5.48
2019-03-23T05:00:06.832Z,5.28
2019-03-23T05:04:14.498Z,5.32
2019-03-23T05:08:32.857Z,5.34
2019-03-23T05:12:32.885Z,5.32
2019-03-23T05:16:40.605Z,5.44
2019-03-23T05:20:48.210Z,5.45
2019-03-23T05:24:55.761Z,5.46
2019-03-23T05:29:03.303Z,5.41
2019-03-23T05:33:10.946Z,5.41
2019-03-23T05:37:18.511Z,5.34
2019-03-23T05:41:26.120Z,5.33
2019-03-23T05:45:33.683Z,5.23
2019-03-23T05:49:41.365Z,5.30
2019-03-23T05:53:48.895Z,5.33
2019-03-23T05:57:56.429Z,5.01
2019-03-23T06:02:05.075Z,5.05
2019-03-23T06:06:12.636Z,4.97
2019-03-23T06:10:20.170Z,5.03
2019-03-23T06:14:27.716Z,5.22
2019-03-23T06:18:35.388Z,5.70
2019-03-23T06:22:43.190Z,5.60
2019-03-23T06:26:50.764Z,5.58
2019-03-23T06:30:58.414Z,5.62
2019-03-23T06:35:07.698Z,5.85
2019-03-23T06:39:15.229Z,6.07
2019-03-23T06:43:22.731Z,6.17
2019-03-23T06:47:30.340Z,6.23
2019-03-23T06:51:37.890Z,6.21
2019-03-23T06:55:45.566Z,6.06
2019-03-23T06:59:53.254Z,6.41
2019-03-23T07:04:01.014Z,6.75
2019-03-23T07:08:09.705Z,6.99
2019-03-23T07:12:17.277Z,7.18
2019-03-23T07:16:24.973Z,7.23
2019-03-23T07:20:32.652Z,7.44
2019-03-23T07:24:40.307Z,7.65
2019-03-23T07:28:48.006Z,7.88
2019-03-23T07:32:55.712Z,8.08
2019-03-23T07:37:03.386Z,8.36
2019-03-23T07:41:11.080Z,8.70
2019-03-23T07:45:19.040Z,8.82
2019-03-23T07:49:26.715Z,9.12
2019-03-23T07:53:34.878Z,9.24
2019-03-23T07:57:42.705Z,9.30
2019-03-23T08:01:50.241Z,9.46
2019-03-23T08:05:57.910Z,9.74
2019-03-23T08:10:06.021Z,10.00
2019-03-23T08:14:13.626Z,10.01
2019-03-23T08:18:21.097Z,10.31
2019-03-23T08:22:29.434Z,10.25
2019-03-23T08:26:37.039Z,11.07
2019-03-23T08:30:44.799Z,11.34
2019-03-23T08:34:52.508Z,12.10
2019-03-23T08:39:00.436Z,12.46
2019-03-23T08:43:09.639Z,12.99
2019-03-23T08:47:17.335Z,13.79
2019-03-23T08:51:25.034Z,14.03
2019-03-23T08:55:32.663Z,14.52
2019-03-23T08:59:40.472Z,15.27
2019-03-23T09:03:52.708Z,15.34
2019-03-23T09:07:57.614Z,15.49
2019-03-23T09:12:05.702Z,16.22
2019-03-23T09:16:13.321Z,16.46
2019-03-23T09:20:20.986Z,17.04
2019-03-23T09:24:28.689Z,17.21
2019-03-23T09:28:36.308Z,17.80
2019-03-23T09:32:44.435Z,18.03
2019-03-23T09:36:52.293Z,18.53
2019-03-23T09:41:00.184Z,18.26
2019-03-23T09:45:09.593Z,18.52
2019-03-23T09:49:17.372Z,18.32
2019-03-23T09:53:25.023Z,18.49
2019-03-23T09:57:32.684Z,18.54
2019-03-23T10:01:40.366Z,18.28
2019-03-23T10:05:48.231Z,18.05
2019-03-23T10:09:55.869Z,18.06
2019-03-23T10:14:03.663Z,17.77
2019-03-23T10:18:11.312Z,17.83
2019-03-23T10:22:18.836Z,17.63
2019-03-23T10:26:26.787Z,17.79
2019-03-23T10:30:34.862Z,17.92
2019-03-23T10:34:42.495Z,17.27
2019-03-23T10:38:50.102Z,18.07
2019-03-23T10:42:57.985Z,18.21
2019-03-23T10:47:07.072Z,18.76
2019-03-23T10:51:16.495Z,18.75
2019-03-23T10:55:24.305Z,18.53
2019-03-23T10:59:32.035Z,19.60
2019-03-23T11:03:40.079Z,19.18
2019-03-23T11:07:49.303Z,19.54
2019-03-23T11:11:57.305Z,19.69
2019-03-23T11:16:04.818Z,19.78
2019-03-23T11:20:13.141Z,19.62
2019-03-23T11:24:20.835Z,20.33
2019-03-23T11:28:28.732Z,20.57
2019-03-23T11:32:36.482Z,20.46
2019-03-23T11:36:44.117Z,20.05
2019-03-23T11:40:55.085Z,20.80
2019-03-23T11:45:01.184Z,20.95
2019-03-23T11:49:08.968Z,21.42
2019-03-23T11:53:16.794Z,20.76
2019-03-23T11:57:24.670Z,21.25
2019-03-23T12:01:32.403Z,21.94
2019-03-23T12:05:40.275Z,22.12
2019-03-23T12:09:48.035Z,22.51
2019-03-23T12:13:55.642Z,22.83
2019-03-23T12:18:06.818Z,22.30
2019-03-23T12:22:14.577Z,22.29
2019-03-23T12:26:22.483Z,23.19
2019-03-23T12:30:31.389Z,22.85
2019-03-23T12:34:39.411Z,22.33
2019-03-23T12:38:47.016Z,22.55
2019-03-23T12:42:54.874Z,21.78
2019-03-23T12:47:04.567Z,22.03
2019-03-23T12:51:11.868Z,22.20
2019-03-23T12:55:19.642Z,22.14
2019-03-23T12:59:37.302Z,22.35
2019-03-23T13:03:46.957Z,22.71
2019-03-23T13:07:56.097Z,22.28
2019-03-23T13:12:03.810Z,22.18
2019-03-23T13:16:11.575Z,22.59
2019-03-23T13:20:19.773Z,22.72
2019-03-23T13:24:27.582Z,21.01
2019-03-23T13:28:35.455Z,21.77
2019-03-23T13:32:43.282Z,22.24
2019-03-23T13:37:21.603Z,22.48
2019-03-23T13:41:29.358Z,21.78
2019-03-23T13:45:42.773Z,22.36
2019-03-23T13:49:49.273Z,22.63
2019-03-23T13:54:00.022Z,22.59
2019-03-23T13:58:15.678Z,22.27
2019-03-23T14:02:23.280Z,22.50
2019-03-23T14:06:31.146Z,22.50
2019-03-23T14:10:38.943Z,22.68
2019-03-23T14:14:48.348Z,22.42
2019-03-23T14:18:55.975Z,22.90
2019-03-23T14:23:03.824Z,22.56
2019-03-23T14:27:13.106Z,22.11
2019-03-23T14:31:21.055Z,22.41
2019-03-23T14:35:29.099Z,22.16
2019-03-23T14:39:37.071Z,22.16
2019-03-23T14:43:44.765Z,21.39
2019-03-23T14:47:52.583Z,21.25
2019-03-23T14:52:01.527Z,20.80
2019-03-23T14:56:11.348Z,20.03
2019-03-23T15:00:34.513Z,19.82
2019-03-23T15:04:42.363Z,18.77
2019-03-23T15:08:50.032Z,18.66
2019-03-23T15:12:57.826Z,18.28
2019-03-23T15:17:05.430Z,18.28
2019-03-23T15:21:13.027Z,17.88
2019-03-23T15:25:20.873Z,17.63
2019-03-23T15:29:30.439Z,17.44
2019-03-23T15:33:41.129Z,17.28
2019-03-23T15:37:49.186Z,17.10
2019-03-23T15:41:57.069Z,17.05
2019-03-23T15:46:04.886Z,16.90
2019-03-23T15:50:16.034Z,16.70
2019-03-23T15:54:23.653Z,16.52
2019-03-23T15:58:31.335Z,16.28
2019-03-23T16:02:39.256Z,16.07
2019-03-23T16:06:47.014Z,16.05
2019-03-23T16:10:54.707Z,15.84
2019-03-23T16:15:02.401Z,15.59
2019-03-23T16:19:10.124Z,15.36
2019-03-23T16:23:17.857Z,15.27
2019-03-23T16:27:25.399Z,15.10
2019-03-23T16:31:33.029Z,14.95
2019-03-23T16:35:40.861Z,14.72
2019-03-23T16:39:49.778Z,14.55
2019-03-23T16:43:57.486Z,14.15
2019-03-23T16:48:05.193Z,14.10
2019-03-23T16:52:12.809Z,14.00
2019-03-23T16:56:20.497Z,13.88
2019-03-23T17:00:39.480Z,13.70
2019-03-23T17:04:47.212Z,13.49
2019-03-23T17:08:55.099Z,13.36
2019-03-23T17:13:03.001Z,13.22
2019-03-23T17:17:13.928Z,12.99
2019-03-23T17:21:24.273Z,12.85
2019-03-23T17:25:32.212Z,12.68
2019-03-23T17:29:40.401Z,12.53
2019-03-23T17:33:48.718Z,12.47
2019-03-23T17:37:56.481Z,12.32
2019-03-23T17:42:05.072Z,12.17
2019-03-23T17:46:12.963Z,12.08
2019-03-23T17:50:23.707Z,11.94
2019-03-23T17:54:32.994Z,11.84
2019-03-23T17:58:44.297Z,11.68
2019-03-23T18:02:52.266Z,11.64
2019-03-23T18:07:00.228Z,11.48
2019-03-23T18:11:08.005Z,11.45
2019-03-23T18:15:17.104Z,11.43
2019-03-23T18:19:24.602Z,11.33
2019-03-23T18:23:32.290Z,11.27
2019-03-23T18:27:39.862Z,11.24
2019-03-23T18:31:47.406Z,11.21
2019-03-23T18:35:54.919Z,11.25
2019-03-23T18:40:02.658Z,11.19
2019-03-23T18:44:16.085Z,11.12
2019-03-23T18:48:19.705Z,11.15
2019-03-23T18:52:27.370Z,11.03
2019-03-23T18:56:34.948Z,11.03
2019-03-23T19:00:44.438Z,10.99
2019-03-23T19:04:51.986Z,10.97
2019-03-23T19:09:01.259Z,10.87
2019-03-23T19:13:10.721Z,10.88
2019-03-23T19:17:19.065Z,10.75
2019-03-23T19:21:27.255Z,10.73
2019-03-23T19:25:35.387Z,10.69
2019-03-23T19:29:43.421Z,10.59
2019-03-23T19:33:52.853Z,10.52
2019-03-23T19:38:01.007Z,10.44
2019-03-23T19:42:09.214Z,10.42
2019-03-23T19:46:18.337Z,10.41
2019-03-23T19:50:26.044Z,10.29
2019-03-23T19:54:33.719Z,10.28
2019-03-23T19:59:02.042Z,10.32
2019-03-23T20:03:04.392Z,10.22
2019-03-23T20:07:11.979Z,10.10
2019-03-23T20:11:19.610Z,10.04
2019-03-23T20:15:27.204Z,10.06
2019-03-23T20:19:35.874Z,9.96
2019-03-23T20:23:43.531Z,9.96
2019-03-23T20:27:51.089Z,9.92
2019-03-23T20:31:58.596Z,9.90
2019-03-23T20:36:06.090Z,9.86
2019-03-23T20:40:14.128Z,9.75
2019-03-23T20:44:21.673Z,9.75
2019-03-23T20:48:29.270Z,9.68
2019-03-23T20:52:36.870Z,9.68
2019-03-23T20:56:44.513Z,9.62
2019-03-23T21:00:52.315Z,9.56
2019-03-23T21:04:59.923Z,9.53
2019-03-23T21:09:10.434Z,9.48
2019-03-23T21:13:17.924Z,9.46
2019-03-23T21:17:25.497Z,9.42
2019-03-23T21:21:33.119Z,9.36
2019-03-23T21:25:40.786Z,9.32
2019-03-23T21:29:48.665Z,9.26
2019-03-23T21:33:56.404Z,9.27
2019-03-23T21:38:05.305Z,9.16
2019-03-23T21:42:14.136Z,9.09
2019-03-23T21:46:21.796Z,9.08
2019-03-23T21:50:30.084Z,9.06
2019-03-23T21:54:38.078Z,8.97
2019-03-23T21:58:48.526Z,8.98
2019-03-23T22:02:56.257Z,8.83
2019-03-23T22:07:03.878Z,8.90
2019-03-23T22:11:11.560Z,8.84
2019-03-23T22:15:19.589Z,8.94
2019-03-23T22:19:27.553Z,8.90
2019-03-23T22:23:36.043Z,8.95
2019-03-23T22:27:44.419Z,9.06
2019-03-23T22:31:52.229Z,8.95
2019-03-23T22:36:00.051Z,8.79
2019-03-23T22:40:10.042Z,8.79
2019-03-23T22:44:20.679Z,8.80
2019-03-23T22:48:28.276Z,8.69
2019-03-23T22:52:35.862Z,8.71
2019-03-23T22:56:43.703Z,8.71
2019-03-23T23:00:52.243Z,8.76
2019-03-23T23:05:00.465Z,8.62
2019-03-23T23:09:11.002Z,8.58
2019-03-23T23:13:18.768Z,8.56
2019-03-23T23:17:26.343Z,8.50
2019-03-23T23:21:34.000Z,8.42
2019-03-23T23:25:41.752Z,8.49
2019-03-23T23:29:49.576Z,8.43
2019-03-23T23:33:57.168Z,8.37
2019-03-23T23:38:04.787Z,8.30
2019-03-23T23:42:12.536Z,8.33
2019-03-23T23:46:20.344Z,8.23
2019-03-23T23:50:27.989Z,8.28
2019-03-23T23:54:35.776Z,8.19
2019-03-23T23:58:46.308Z,8.14
